sensor_id;sensor_type;location;lat;lon;timestamp;P1;durP1;ratioP1;P2;durP2;ratioP2
7613;SDS011;3848;42.016;23.098;2024-03-23T00:55:24;5.83;;;4.63;;
7613;SDS011;3848;42.016;23.098;2024-03-23T00:57:50;9.27;;;4.77;;
7613;SDS011;3848;42.016;23.098;2024-03-23T01:00:17;8.70;;;4.87;;
7613;SDS011;3848;42.016;23.098;2024-03-23T01:02:43;10.07;;;4.70;;
7613;SDS011;3848;42.016;23.098;2024-03-23T01:05:10;8.07;;;5.00;;
7613;SDS011;3848;42.016;23.098;2024-03-23T01:07:36;10.13;;;5.60;;
7613;SDS011;3848;42.016;23.098;2024-03-23T01:10:05;6.87;;;4.20;;
7613;SDS011;3848;42.016;23.098;2024-03-23T01:12:31;6.10;;;4.43;;
7613;SDS011;3848;42.016;23.098;2024-03-23T01:14:58;8.43;;;4.50;;
7613;SDS011;3848;42.016;23.098;2024-03-23T01:17:24;10.37;;;5.13;;
7613;SDS011;3848;42.016;23.098;2024-03-23T01:19:51;6.67;;;4.37;;
7613;SDS011;3848;42.016;23.098;2024-03-23T01:22:17;8.23;;;4.60;;
7613;SDS011;3848;42.016;23.098;2024-03-23T01:24:44;13.30;;;5.47;;
7613;SDS011;3848;42.016;23.098;2024-03-23T01:29:57;7.63;;;4.43;;
7613;SDS011;3848;42.016;23.098;2024-03-23T01:32:23;6.93;;;4.33;;
7613;SDS011;3848;42.016;23.098;2024-03-23T01:34:50;10.03;;;4.80;;
7613;SDS011;3848;42.016;23.098;2024-03-23T01:37:16;9.17;;;4.30;;
7613;SDS011;3848;42.016;23.098;2024-03-23T01:39:43;6.43;;;3.83;;
7613;SDS011;3848;42.016;23.098;2024-03-23T01:42:09;9.17;;;4.17;;
7613;SDS011;3848;42.016;23.098;2024-03-23T01:44:38;9.27;;;4.67;;
7613;SDS011;3848;42.016;23.098;2024-03-23T01:47:03;8.07;;;4.60;;
7613;SDS011;3848;42.016;23.098;2024-03-23T01:49:32;7.13;;;4.80;;
7613;SDS011;3848;42.016;23.098;2024-03-23T01:51:58;6.93;;;4.23;;
7613;SDS011;3848;42.016;23.098;2024-03-23T01:54:26;8.47;;;4.30;;
7613;SDS011;3848;42.016;23.098;2024-03-23T01:56:52;5.33;;;4.00;;
7613;SDS011;3848;42.016;23.098;2024-03-23T01:59:20;7.10;;;4.30;;
7613;SDS011;3848;42.016;23.098;2024-03-23T02:01:48;7.97;;;4.57;;
7613;SDS011;3848;42.016;23.098;2024-03-23T02:04:15;11.47;;;5.00;;
7613;SDS011;3848;42.016;23.098;2024-03-23T02:06:41;8.50;;;4.37;;
7613;SDS011;3848;42.016;23.098;2024-03-23T02:09:08;10.77;;;5.07;;
7613;SDS011;3848;42.016;23.098;2024-03-23T02:11:34;9.93;;;4.93;;
7613;SDS011;3848;42.016;23.098;2024-03-23T02:14:01;14.70;;;5.50;;
7613;SDS011;3848;42.016;23.098;2024-03-23T02:16:27;8.33;;;4.90;;
7613;SDS011;3848;42.016;23.098;2024-03-23T02:18:55;8.90;;;5.23;;
7613;SDS011;3848;42.016;23.098;2024-03-23T02:21:21;9.23;;;4.70;;
7613;SDS011;3848;42.016;23.098;2024-03-23T02:23:50;11.80;;;6.20;;
7613;SDS011;3848;42.016;23.098;2024-03-23T02:26:15;9.17;;;4.77;;
7613;SDS011;3848;42.016;23.098;2024-03-23T02:28:42;13.80;;;5.43;;
7613;SDS011;3848;42.016;23.098;2024-03-23T02:31:08;8.40;;;5.03;;
7613;SDS011;3848;42.016;23.098;2024-03-23T02:33:35;8.43;;;5.33;;
7613;SDS011;3848;42.016;23.098;2024-03-23T02:36:03;7.70;;;4.97;;
7613;SDS011;3848;42.016;23.098;2024-03-23T02:38:30;9.07;;;5.30;;
7613;SDS011;3848;42.016;23.098;2024-03-23T02:41:02;10.40;;;5.37;;
7613;SDS011;3848;42.016;23.098;2024-03-23T02:43:29;12.07;;;5.23;;
7613;SDS011;3848;42.016;23.098;2024-03-23T02:45:55;12.83;;;5.77;;
7613;SDS011;3848;42.016;23.098;2024-03-23T02:48:22;10.93;;;4.97;;
7613;SDS011;3848;42.016;23.098;2024-03-23T02:50:50;12.70;;;5.60;;
7613;SDS011;3848;42.016;23.098;2024-03-23T02:53:15;11.67;;;5.37;;
7613;SDS011;3848;42.016;23.098;2024-03-23T02:55:42;8.90;;;5.53;;
7613;SDS011;3848;42.016;23.098;2024-03-23T02:58:10;9.27;;;5.93;;
7613;SDS011;3848;42.016;23.098;2024-03-23T03:00:37;19.90;;;6.40;;
7613;SDS011;3848;42.016;23.098;2024-03-23T03:03:03;12.57;;;5.80;;
7613;SDS011;3848;42.016;23.098;2024-03-23T03:05:30;13.77;;;5.80;;
7613;SDS011;3848;42.016;23.098;2024-03-23T03:07:56;10.47;;;5.77;;
7613;SDS011;3848;42.016;23.098;2024-03-23T03:10:23;7.53;;;5.00;;
7613;SDS011;3848;42.016;23.098;2024-03-23T03:12:49;6.80;;;4.43;;
7613;SDS011;3848;42.016;23.098;2024-03-23T03:15:17;8.60;;;4.23;;
7613;SDS011;3848;42.016;23.098;2024-03-23T03:17:43;8.70;;;4.97;;
7613;SDS011;3848;42.016;23.098;2024-03-23T03:20:11;6.70;;;4.60;;
7613;SDS011;3848;42.016;23.098;2024-03-23T03:22:39;6.67;;;3.80;;
7613;SDS011;3848;42.016;23.098;2024-03-23T03:25:06;6.90;;;4.50;;
7613;SDS011;3848;42.016;23.098;2024-03-23T03:27:32;11.87;;;4.57;;
7613;SDS011;3848;42.016;23.098;2024-03-23T03:30:00;7.97;;;4.17;;
7613;SDS011;3848;42.016;23.098;2024-03-23T03:32:29;6.40;;;4.47;;
7613;SDS011;3848;42.016;23.098;2024-03-23T03:34:56;8.63;;;5.00;;
7613;SDS011;3848;42.016;23.098;2024-03-23T03:37:22;6.60;;;3.83;;
7613;SDS011;3848;42.016;23.098;2024-03-23T03:39:49;6.97;;;4.13;;
7613;SDS011;3848;42.016;23.098;2024-03-23T03:42:15;5.23;;;4.00;;
7613;SDS011;3848;42.016;23.098;2024-03-23T03:44:42;6.90;;;4.03;;
7613;SDS011;3848;42.016;23.098;2024-03-23T03:47:08;14.67;;;4.83;;
7613;SDS011;3848;42.016;23.098;2024-03-23T03:49:37;11.60;;;4.60;;
7613;SDS011;3848;42.016;23.098;2024-03-23T03:52:03;9.90;;;5.07;;
7613;SDS011;3848;42.016;23.098;2024-03-23T03:54:31;10.90;;;4.47;;
7613;SDS011;3848;42.016;23.098;2024-03-23T03:56:58;13.23;;;5.50;;
7613;SDS011;3848;42.016;23.098;2024-03-23T03:59:25;7.63;;;4.90;;
7613;SDS011;3848;42.016;23.098;2024-03-23T04:01:51;11.07;;;5.67;;
7613;SDS011;3848;42.016;23.098;2024-03-23T04:04:18;11.87;;;5.80;;
7613;SDS011;3848;42.016;23.098;2024-03-23T04:06:47;14.57;;;5.23;;
7613;SDS011;3848;42.016;23.098;2024-03-23T04:09:14;8.97;;;4.87;;
7613;SDS011;3848;42.016;23.098;2024-03-23T04:11:40;10.97;;;5.93;;
7613;SDS011;3848;42.016;23.098;2024-03-23T04:14:07;9.53;;;5.13;;
7613;SDS011;3848;42.016;23.098;2024-03-23T04:16:34;17.57;;;6.10;;
7613;SDS011;3848;42.016;23.098;2024-03-23T04:19:01;8.33;;;4.93;;
7613;SDS011;3848;42.016;23.098;2024-03-23T04:21:27;9.90;;;5.60;;
7613;SDS011;3848;42.016;23.098;2024-03-23T04:23:56;7.00;;;4.70;;
7613;SDS011;3848;42.016;23.098;2024-03-23T04:26:22;7.27;;;4.43;;
7613;SDS011;3848;42.016;23.098;2024-03-23T04:28:49;15.43;;;5.10;;
7613;SDS011;3848;42.016;23.098;2024-03-23T04:31:15;11.07;;;5.37;;
7613;SDS011;3848;42.016;23.098;2024-03-23T04:33:42;7.77;;;5.07;;
7613;SDS011;3848;42.016;23.098;2024-03-23T04:36:08;13.90;;;5.23;;
7613;SDS011;3848;42.016;23.098;2024-03-23T04:38:35;8.70;;;4.90;;
7613;SDS011;3848;42.016;23.098;2024-03-23T04:41:03;7.70;;;4.83;;
7613;SDS011;3848;42.016;23.098;2024-03-23T04:43:30;8.63;;;5.40;;
7613;SDS011;3848;42.016;23.098;2024-03-23T04:45:57;9.33;;;5.33;;
7613;SDS011;3848;42.016;23.098;2024-03-23T04:48:24;6.97;;;4.87;;
7613;SDS011;3848;42.016;23.098;2024-03-23T04:50:54;13.27;;;5.43;;
7613;SDS011;3848;42.016;23.098;2024-03-23T04:53:22;9.17;;;5.57;;
7613;SDS011;3848;42.016;23.098;2024-03-23T04:55:53;12.03;;;5.10;;
7613;SDS011;3848;42.016;23.098;2024-03-23T04:58:22;12.57;;;5.97;;
7613;SDS011;3848;42.016;23.098;2024-03-23T05:00:52;9.33;;;5.03;;
7613;SDS011;3848;42.016;23.098;2024-03-23T05:03:20;7.47;;;4.90;;
7613;SDS011;3848;42.016;23.098;2024-03-23T05:05:47;9.67;;;5.37;;
7613;SDS011;3848;42.016;23.098;2024-03-23T05:08:13;12.77;;;4.70;;
7613;SDS011;3848;42.016;23.098;2024-03-23T05:10:41;7.17;;;4.53;;
7613;SDS011;3848;42.016;23.098;2024-03-23T05:13:07;8.67;;;5.07;;
7613;SDS011;3848;42.016;23.098;2024-03-23T05:15:35;11.27;;;5.17;;
7613;SDS011;3848;42.016;23.098;2024-03-23T05:18:01;8.63;;;5.70;;
7613;SDS011;3848;42.016;23.098;2024-03-23T05:20:28;20.73;;;6.67;;
7613;SDS011;3848;42.016;23.098;2024-03-23T05:22:54;9.73;;;5.60;;
7613;SDS011;3848;42.016;23.098;2024-03-23T05:25:21;13.23;;;6.57;;
7613;SDS011;3848;42.016;23.098;2024-03-23T05:27:48;13.80;;;6.73;;
7613;SDS011;3848;42.016;23.098;2024-03-23T05:30:15;11.97;;;6.33;;
7613;SDS011;3848;42.016;23.098;2024-03-23T05:32:42;8.53;;;6.07;;
7613;SDS011;3848;42.016;23.098;2024-03-23T05:35:10;11.70;;;5.93;;
7613;SDS011;3848;42.016;23.098;2024-03-23T05:37:35;20.43;;;6.63;;
7613;SDS011;3848;42.016;23.098;2024-03-23T05:40:03;12.80;;;6.37;;
7613;SDS011;3848;42.016;23.098;2024-03-23T05:42:29;10.03;;;5.80;;
7613;SDS011;3848;42.016;23.098;2024-03-23T05:44:56;13.37;;;6.60;;
7613;SDS011;3848;42.016;23.098;2024-03-23T05:47:22;13.17;;;6.33;;
7613;SDS011;3848;42.016;23.098;2024-03-23T05:49:51;13.43;;;6.73;;
7613;SDS011;3848;42.016;23.098;2024-03-23T05:52:17;17.17;;;6.83;;
7613;SDS011;3848;42.016;23.098;2024-03-23T05:54:46;16.47;;;8.20;;
7613;SDS011;3848;42.016;23.098;2024-03-23T05:57:12;17.30;;;8.03;;
7613;SDS011;3848;42.016;23.098;2024-03-23T05:59:39;14.97;;;7.63;;
7613;SDS011;3848;42.016;23.098;2024-03-23T06:02:05;14.40;;;7.03;;
7613;SDS011;3848;42.016;23.098;2024-03-23T06:04:32;14.50;;;6.70;;
7613;SDS011;3848;42.016;23.098;2024-03-23T06:07:00;14.47;;;8.10;;
7613;SDS011;3848;42.016;23.098;2024-03-23T06:09:27;14.00;;;8.83;;
7613;SDS011;3848;42.016;23.098;2024-03-23T06:11:53;13.63;;;8.70;;
7613;SDS011;3848;42.016;23.098;2024-03-23T06:14:20;18.70;;;8.80;;
7613;SDS011;3848;42.016;23.098;2024-03-23T06:16:46;18.37;;;8.60;;
7613;SDS011;3848;42.016;23.098;2024-03-23T06:19:13;16.17;;;8.83;;
7613;SDS011;3848;42.016;23.098;2024-03-23T06:21:42;13.93;;;7.50;;
7613;SDS011;3848;42.016;23.098;2024-03-23T06:24:11;15.60;;;8.33;;
7613;SDS011;3848;42.016;23.098;2024-03-23T06:26:38;11.97;;;7.63;;
7613;SDS011;3848;42.016;23.098;2024-03-23T06:29:05;11.23;;;7.40;;
7613;SDS011;3848;42.016;23.098;2024-03-23T06:31:31;17.53;;;7.93;;
7613;SDS011;3848;42.016;23.098;2024-03-23T06:33:58;12.97;;;7.77;;
7613;SDS011;3848;42.016;23.098;2024-03-23T06:36:24;13.87;;;7.37;;
7613;SDS011;3848;42.016;23.098;2024-03-23T06:38:51;13.50;;;6.70;;
7613;SDS011;3848;42.016;23.098;2024-03-23T06:41:19;17.77;;;8.50;;
7613;SDS011;3848;42.016;23.098;2024-03-23T06:43:46;10.57;;;6.77;;
7613;SDS011;3848;42.016;23.098;2024-03-23T06:46:12;8.73;;;6.30;;
7613;SDS011;3848;42.016;23.098;2024-03-23T06:48:39;9.47;;;5.70;;
7613;SDS011;3848;42.016;23.098;2024-03-23T06:51:05;8.33;;;6.03;;
7613;SDS011;3848;42.016;23.098;2024-03-23T06:53:34;8.97;;;6.00;;
7613;SDS011;3848;42.016;23.098;2024-03-23T06:56:00;9.07;;;5.90;;
7613;SDS011;3848;42.016;23.098;2024-03-23T06:58:28;13.70;;;7.13;;
7613;SDS011;3848;42.016;23.098;2024-03-23T07:00:54;8.87;;;6.23;;
7613;SDS011;3848;42.016;23.098;2024-03-23T07:03:21;9.13;;;6.23;;
7613;SDS011;3848;42.016;23.098;2024-03-23T07:05:49;9.77;;;5.90;;
7613;SDS011;3848;42.016;23.098;2024-03-23T07:08:16;11.47;;;7.03;;
7613;SDS011;3848;42.016;23.098;2024-03-23T07:10:46;11.80;;;6.63;;
7613;SDS011;3848;42.016;23.098;2024-03-23T07:13:13;15.93;;;7.50;;
7613;SDS011;3848;42.016;23.098;2024-03-23T07:15:41;11.43;;;6.90;;
7613;SDS011;3848;42.016;23.098;2024-03-23T07:18:08;11.30;;;6.73;;
7613;SDS011;3848;42.016;23.098;2024-03-23T07:20:33;13.97;;;6.93;;
7613;SDS011;3848;42.016;23.098;2024-03-23T07:23:00;11.23;;;6.47;;
7613;SDS011;3848;42.016;23.098;2024-03-23T07:25:26;11.23;;;6.50;;
7613;SDS011;3848;42.016;23.098;2024-03-23T07:27:54;10.80;;;6.30;;
7613;SDS011;3848;42.016;23.098;2024-03-23T07:30:20;12.67;;;7.27;;
7613;SDS011;3848;42.016;23.098;2024-03-23T07:32:48;11.30;;;7.47;;
7613;SDS011;3848;42.016;23.098;2024-03-23T07:35:14;13.03;;;6.60;;
7613;SDS011;3848;42.016;23.098;2024-03-23T07:37:41;10.43;;;6.50;;
7613;SDS011;3848;42.016;23.098;2024-03-23T07:40:08;13.93;;;6.07;;
7613;SDS011;3848;42.016;23.098;2024-03-23T07:42:37;8.90;;;5.80;;
7613;SDS011;3848;42.016;23.098;2024-03-23T07:45:03;10.23;;;5.90;;
7613;SDS011;3848;42.016;23.098;2024-03-23T07:47:30;11.87;;;6.93;;
7613;SDS011;3848;42.016;23.098;2024-03-23T07:49:58;10.10;;;5.90;;
7613;SDS011;3848;42.016;23.098;2024-03-23T07:52:27;10.00;;;5.80;;
7613;SDS011;3848;42.016;23.098;2024-03-23T07:54:54;10.13;;;4.97;;
7613;SDS011;3848;42.016;23.098;2024-03-23T07:57:21;9.90;;;4.93;;
7613;SDS011;3848;42.016;23.098;2024-03-23T07:59:47;11.17;;;5.33;;
7613;SDS011;3848;42.016;23.098;2024-03-23T08:02:14;8.80;;;6.17;;
7613;SDS011;3848;42.016;23.098;2024-03-23T08:04:40;9.87;;;6.07;;
7613;SDS011;3848;42.016;23.098;2024-03-23T08:07:08;12.00;;;6.73;;
7613;SDS011;3848;42.016;23.098;2024-03-23T08:09:34;7.67;;;4.63;;
7613;SDS011;3848;42.016;23.098;2024-03-23T08:12:01;9.63;;;5.70;;
7613;SDS011;3848;42.016;23.098;2024-03-23T08:14:27;11.07;;;6.80;;
7613;SDS011;3848;42.016;23.098;2024-03-23T08:16:54;11.07;;;6.17;;
7613;SDS011;3848;42.016;23.098;2024-03-23T08:19:20;10.00;;;6.20;;
7613;SDS011;3848;42.016;23.098;2024-03-23T08:21:47;13.07;;;6.53;;
7613;SDS011;3848;42.016;23.098;2024-03-23T08:24:15;12.20;;;6.23;;
7613;SDS011;3848;42.016;23.098;2024-03-23T08:26:42;10.37;;;6.57;;
7613;SDS011;3848;42.016;23.098;2024-03-23T08:29:10;14.97;;;7.00;;
7613;SDS011;3848;42.016;23.098;2024-03-23T08:31:37;10.97;;;6.30;;
7613;SDS011;3848;42.016;23.098;2024-03-23T08:34:04;8.63;;;5.90;;
7613;SDS011;3848;42.016;23.098;2024-03-23T08:36:31;9.73;;;5.87;;
7613;SDS011;3848;42.016;23.098;2024-03-23T08:38:57;9.57;;;6.33;;
7613;SDS011;3848;42.016;23.098;2024-03-23T08:41:25;9.23;;;6.10;;
7613;SDS011;3848;42.016;23.098;2024-03-23T08:43:51;11.33;;;6.50;;
7613;SDS011;3848;42.016;23.098;2024-03-23T08:46:18;11.50;;;5.67;;
7613;SDS011;3848;42.016;23.098;2024-03-23T08:48:44;13.07;;;5.33;;
7613;SDS011;3848;42.016;23.098;2024-03-23T08:51:14;8.90;;;5.47;;
7613;SDS011;3848;42.016;23.098;2024-03-23T08:53:41;11.67;;;6.10;;
7613;SDS011;3848;42.016;23.098;2024-03-23T08:56:09;13.20;;;6.63;;
7613;SDS011;3848;42.016;23.098;2024-03-23T08:58:37;13.73;;;6.47;;
7613;SDS011;3848;42.016;23.098;2024-03-23T09:01:06;10.10;;;6.13;;
7613;SDS011;3848;42.016;23.098;2024-03-23T09:03:33;10.97;;;7.00;;
7613;SDS011;3848;42.016;23.098;2024-03-23T09:06:00;18.20;;;8.47;;
7613;SDS011;3848;42.016;23.098;2024-03-23T09:08:26;14.60;;;6.93;;
7613;SDS011;3848;42.016;23.098;2024-03-23T09:10:53;11.23;;;5.73;;
7613;SDS011;3848;42.016;23.098;2024-03-23T09:13:20;9.40;;;5.30;;
7613;SDS011;3848;42.016;23.098;2024-03-23T09:15:48;10.97;;;5.93;;
7613;SDS011;3848;42.016;23.098;2024-03-23T09:18:16;9.63;;;5.47;;
7613;SDS011;3848;42.016;23.098;2024-03-23T09:20:43;7.33;;;5.17;;
7613;SDS011;3848;42.016;23.098;2024-03-23T09:23:09;9.10;;;5.00;;
7613;SDS011;3848;42.016;23.098;2024-03-23T09:25:36;11.17;;;5.23;;
7613;SDS011;3848;42.016;23.098;2024-03-23T09:28:03;6.77;;;4.80;;
7613;SDS011;3848;42.016;23.098;2024-03-23T09:30:31;6.17;;;4.10;;
7613;SDS011;3848;42.016;23.098;2024-03-23T09:33:00;8.87;;;4.23;;
7613;SDS011;3848;42.016;23.098;2024-03-23T09:35:27;6.97;;;3.27;;
7613;SDS011;3848;42.016;23.098;2024-03-23T09:37:53;7.63;;;3.80;;
7613;SDS011;3848;42.016;23.098;2024-03-23T09:40:20;10.37;;;3.47;;
7613;SDS011;3848;42.016;23.098;2024-03-23T09:42:49;7.97;;;4.33;;
7613;SDS011;3848;42.016;23.098;2024-03-23T09:45:17;8.30;;;4.43;;
7613;SDS011;3848;42.016;23.098;2024-03-23T09:47:46;7.63;;;3.90;;
7613;SDS011;3848;42.016;23.098;2024-03-23T09:50:16;7.53;;;3.60;;
7613;SDS011;3848;42.016;23.098;2024-03-23T09:52:42;12.30;;;3.47;;
7613;SDS011;3848;42.016;23.098;2024-03-23T09:55:09;7.93;;;4.83;;
7613;SDS011;3848;42.016;23.098;2024-03-23T09:57:35;7.70;;;3.40;;
7613;SDS011;3848;42.016;23.098;2024-03-23T10:00:02;4.50;;;2.97;;
7613;SDS011;3848;42.016;23.098;2024-03-23T10:02:28;5.00;;;3.80;;
7613;SDS011;3848;42.016;23.098;2024-03-23T10:04:55;7.00;;;3.43;;
7613;SDS011;3848;42.016;23.098;2024-03-23T10:07:24;3.40;;;2.43;;
7613;SDS011;3848;42.016;23.098;2024-03-23T10:09:53;3.83;;;3.33;;
7613;SDS011;3848;42.016;23.098;2024-03-23T10:12:19;5.87;;;3.63;;
7613;SDS011;3848;42.016;23.098;2024-03-23T10:14:46;4.63;;;3.30;;
7613;SDS011;3848;42.016;23.098;2024-03-23T10:17:13;6.57;;;3.80;;
7613;SDS011;3848;42.016;23.098;2024-03-23T10:19:43;2.93;;;2.43;;
7613;SDS011;3848;42.016;23.098;2024-03-23T10:22:09;6.80;;;3.00;;
7613;SDS011;3848;42.016;23.098;2024-03-23T10:24:41;3.50;;;2.53;;
7613;SDS011;3848;42.016;23.098;2024-03-23T10:27:07;2.87;;;2.07;;
7613;SDS011;3848;42.016;23.098;2024-03-23T10:29:34;2.67;;;2.27;;
7613;SDS011;3848;42.016;23.098;2024-03-23T10:32:07;2.90;;;2.30;;
7613;SDS011;3848;42.016;23.098;2024-03-23T10:34:35;2.90;;;2.63;;
7613;SDS011;3848;42.016;23.098;2024-03-23T10:37:02;3.67;;;2.60;;
7613;SDS011;3848;42.016;23.098;2024-03-23T10:39:33;9.33;;;3.17;;
7613;SDS011;3848;42.016;23.098;2024-03-23T10:42:02;4.53;;;3.00;;
7613;SDS011;3848;42.016;23.098;2024-03-23T10:44:30;4.73;;;2.60;;
7613;SDS011;3848;42.016;23.098;2024-03-23T10:46:57;4.77;;;2.87;;
7613;SDS011;3848;42.016;23.098;2024-03-23T10:49:28;3.23;;;2.77;;
7613;SDS011;3848;42.016;23.098;2024-03-23T10:51:56;8.73;;;2.63;;
7613;SDS011;3848;42.016;23.098;2024-03-23T10:54:24;4.30;;;2.23;;
7613;SDS011;3848;42.016;23.098;2024-03-23T10:56:51;4.17;;;2.60;;
7613;SDS011;3848;42.016;23.098;2024-03-23T10:59:24;6.40;;;2.80;;
7613;SDS011;3848;42.016;23.098;2024-03-23T11:01:54;4.73;;;2.60;;
7613;SDS011;3848;42.016;23.098;2024-03-23T11:04:32;7.67;;;2.90;;
7613;SDS011;3848;42.016;23.098;2024-03-23T11:06:58;6.57;;;2.77;;
7613;SDS011;3848;42.016;23.098;2024-03-23T11:09:38;4.67;;;2.33;;
7613;SDS011;3848;42.016;23.098;2024-03-23T11:12:09;9.53;;;3.10;;
7613;SDS011;3848;42.016;23.098;2024-03-23T11:14:52;4.73;;;2.60;;
7613;SDS011;3848;42.016;23.098;2024-03-23T11:17:20;3.57;;;2.90;;
7613;SDS011;3848;42.016;23.098;2024-03-23T11:19:52;2.80;;;2.30;;
7613;SDS011;3848;42.016;23.098;2024-03-23T11:25:12;2.57;;;1.70;;
7613;SDS011;3848;42.016;23.098;2024-03-23T11:27:39;3.90;;;2.33;;
7613;SDS011;3848;42.016;23.098;2024-03-23T11:30:14;3.80;;;2.00;;
7613;SDS011;3848;42.016;23.098;2024-03-23T11:32:42;2.27;;;1.80;;
7613;SDS011;3848;42.016;23.098;2024-03-23T11:35:10;4.00;;;2.23;;
7613;SDS011;3848;42.016;23.098;2024-03-23T11:37:36;4.20;;;2.33;;
7613;SDS011;3848;42.016;23.098;2024-03-23T11:40:17;3.93;;;2.23;;
7613;SDS011;3848;42.016;23.098;2024-03-23T11:42:43;2.70;;;2.10;;
7613;SDS011;3848;42.016;23.098;2024-03-23T11:45:11;2.10;;;2.00;;
7613;SDS011;3848;42.016;23.098;2024-03-23T11:47:39;8.47;;;2.13;;
7613;SDS011;3848;42.016;23.098;2024-03-23T11:50:06;2.50;;;2.30;;
7613;SDS011;3848;42.016;23.098;2024-03-23T11:52:32;3.60;;;2.20;;
7613;SDS011;3848;42.016;23.098;2024-03-23T11:55:06;3.97;;;2.47;;
7613;SDS011;3848;42.016;23.098;2024-03-23T11:57:33;6.37;;;2.50;;
7613;SDS011;3848;42.016;23.098;2024-03-23T12:00:00;2.97;;;2.13;;
7613;SDS011;3848;42.016;23.098;2024-03-23T12:02:26;3.67;;;2.20;;
7613;SDS011;3848;42.016;23.098;2024-03-23T12:04:55;7.77;;;2.47;;
7613;SDS011;3848;42.016;23.098;2024-03-23T12:07:21;3.00;;;1.90;;
7613;SDS011;3848;42.016;23.098;2024-03-23T12:10:02;2.43;;;2.10;;
7613;SDS011;3848;42.016;23.098;2024-03-23T12:12:28;2.67;;;1.90;;
7613;SDS011;3848;42.016;23.098;2024-03-23T12:15:02;5.97;;;2.20;;
7613;SDS011;3848;42.016;23.098;2024-03-23T12:17:30;3.97;;;2.13;;
7613;SDS011;3848;42.016;23.098;2024-03-23T12:19:58;8.43;;;2.20;;
7613;SDS011;3848;42.016;23.098;2024-03-23T12:22:24;2.67;;;2.10;;
7613;SDS011;3848;42.016;23.098;2024-03-23T12:24:51;2.50;;;1.90;;
7613;SDS011;3848;42.016;23.098;2024-03-23T12:27:18;3.03;;;2.30;;
7613;SDS011;3848;42.016;23.098;2024-03-23T12:29:45;2.50;;;1.70;;
7613;SDS011;3848;42.016;23.098;2024-03-23T12:32:12;2.13;;;1.80;;
7613;SDS011;3848;42.016;23.098;2024-03-23T12:34:40;4.83;;;2.27;;
7613;SDS011;3848;42.016;23.098;2024-03-23T12:37:08;4.10;;;2.40;;
7613;SDS011;3848;42.016;23.098;2024-03-23T12:39:35;4.60;;;2.90;;
7613;SDS011;3848;42.016;23.098;2024-03-23T12:42:02;2.20;;;2.00;;
7613;SDS011;3848;42.016;23.098;2024-03-23T12:44:29;2.33;;;2.10;;
7613;SDS011;3848;42.016;23.098;2024-03-23T12:46:55;3.97;;;2.13;;
7613;SDS011;3848;42.016;23.098;2024-03-23T12:49:22;3.13;;;2.30;;
7613;SDS011;3848;42.016;23.098;2024-03-23T12:51:53;2.70;;;2.17;;
7613;SDS011;3848;42.016;23.098;2024-03-23T12:54:22;8.33;;;2.93;;
7613;SDS011;3848;42.016;23.098;2024-03-23T12:56:49;2.93;;;1.90;;
7613;SDS011;3848;42.016;23.098;2024-03-23T12:59:16;1.93;;;1.83;;
7613;SDS011;3848;42.016;23.098;2024-03-23T13:01:43;2.13;;;1.93;;
7613;SDS011;3848;42.016;23.098;2024-03-23T13:04:10;3.53;;;2.10;;
7613;SDS011;3848;42.016;23.098;2024-03-23T13:06:36;2.80;;;1.80;;
7613;SDS011;3848;42.016;23.098;2024-03-23T13:09:03;2.47;;;1.87;;
7613;SDS011;3848;42.016;23.098;2024-03-23T13:11:31;2.60;;;2.10;;
7613;SDS011;3848;42.016;23.098;2024-03-23T13:13:58;1.90;;;1.80;;
7613;SDS011;3848;42.016;23.098;2024-03-23T13:16:24;9.40;;;2.07;;
7613;SDS011;3848;42.016;23.098;2024-03-23T13:18:51;2.33;;;1.80;;
7613;SDS011;3848;42.016;23.098;2024-03-23T13:21:17;6.60;;;2.40;;
7613;SDS011;3848;42.016;23.098;2024-03-23T13:23:46;2.03;;;1.83;;
7613;SDS011;3848;42.016;23.098;2024-03-23T13:26:13;2.03;;;1.60;;
7613;SDS011;3848;42.016;23.098;2024-03-23T13:28:41;2.37;;;1.57;;
7613;SDS011;3848;42.016;23.098;2024-03-23T13:31:07;4.17;;;1.80;;
7613;SDS011;3848;42.016;23.098;2024-03-23T13:33:34;2.57;;;1.70;;
7613;SDS011;3848;42.016;23.098;2024-03-23T13:36:00;6.67;;;1.80;;
7613;SDS011;3848;42.016;23.098;2024-03-23T13:38:28;2.60;;;1.93;;
7613;SDS011;3848;42.016;23.098;2024-03-23T13:40:55;2.93;;;1.93;;
7613;SDS011;3848;42.016;23.098;2024-03-23T13:43:23;2.57;;;1.90;;
7613;SDS011;3848;42.016;23.098;2024-03-23T13:45:54;1.70;;;1.60;;
7613;SDS011;3848;42.016;23.098;2024-03-23T13:48:23;2.13;;;1.60;;
7613;SDS011;3848;42.016;23.098;2024-03-23T13:50:56;2.27;;;1.83;;
7613;SDS011;3848;42.016;23.098;2024-03-23T13:53:24;2.47;;;2.10;;
7613;SDS011;3848;42.016;23.098;2024-03-23T13:55:50;5.53;;;1.30;;
7613;SDS011;3848;42.016;23.098;2024-03-23T13:58:17;4.10;;;1.50;;
7613;SDS011;3848;42.016;23.098;2024-03-23T14:00:43;1.80;;;1.40;;
7613;SDS011;3848;42.016;23.098;2024-03-23T14:03:12;2.13;;;1.60;;
7613;SDS011;3848;42.016;23.098;2024-03-23T14:05:39;1.97;;;1.80;;
7613;SDS011;3848;42.016;23.098;2024-03-23T14:08:06;3.23;;;2.33;;
7613;SDS011;3848;42.016;23.098;2024-03-23T14:10:33;2.27;;;1.60;;
7613;SDS011;3848;42.016;23.098;2024-03-23T14:13:00;3.47;;;2.47;;
7613;SDS011;3848;42.016;23.098;2024-03-23T14:15:27;7.83;;;3.20;;
7613;SDS011;3848;42.016;23.098;2024-03-23T14:17:54;4.03;;;1.70;;
7613;SDS011;3848;42.016;23.098;2024-03-23T14:20:21;2.60;;;1.83;;
7613;SDS011;3848;42.016;23.098;2024-03-23T14:22:48;3.70;;;2.13;;
7613;SDS011;3848;42.016;23.098;2024-03-23T14:25:15;3.37;;;2.17;;
7613;SDS011;3848;42.016;23.098;2024-03-23T14:27:43;2.70;;;1.83;;
7613;SDS011;3848;42.016;23.098;2024-03-23T14:30:10;4.10;;;2.43;;
7613;SDS011;3848;42.016;23.098;2024-03-23T14:32:39;3.00;;;2.20;;
7613;SDS011;3848;42.016;23.098;2024-03-23T14:35:05;2.67;;;2.10;;
7613;SDS011;3848;42.016;23.098;2024-03-23T14:37:33;3.10;;;2.80;;
7613;SDS011;3848;42.016;23.098;2024-03-23T14:39:59;4.57;;;3.43;;
7613;SDS011;3848;42.016;23.098;2024-03-23T14:42:28;3.20;;;2.13;;
7613;SDS011;3848;42.016;23.098;2024-03-23T14:44:53;2.13;;;1.93;;
7613;SDS011;3848;42.016;23.098;2024-03-23T14:47:20;3.30;;;1.90;;
7613;SDS011;3848;42.016;23.098;2024-03-23T14:49:46;5.13;;;2.40;;
7613;SDS011;3848;42.016;23.098;2024-03-23T14:52:15;3.17;;;1.93;;
7613;SDS011;3848;42.016;23.098;2024-03-23T14:54:43;4.63;;;2.30;;
7613;SDS011;3848;42.016;23.098;2024-03-23T14:57:10;3.97;;;2.23;;
7613;SDS011;3848;42.016;23.098;2024-03-23T14:59:36;2.67;;;2.47;;
7613;SDS011;3848;42.016;23.098;2024-03-23T15:02:04;6.27;;;2.77;;
7613;SDS011;3848;42.016;23.098;2024-03-23T15:04:31;6.67;;;2.73;;
7613;SDS011;3848;42.016;23.098;2024-03-23T15:06:58;5.70;;;2.90;;
7613;SDS011;3848;42.016;23.098;2024-03-23T15:09:24;4.20;;;2.47;;
7613;SDS011;3848;42.016;23.098;2024-03-23T15:11:52;4.23;;;2.87;;
7613;SDS011;3848;42.016;23.098;2024-03-23T15:14:20;3.53;;;2.60;;
7613;SDS011;3848;42.016;23.098;2024-03-23T15:16:47;4.40;;;2.60;;
7613;SDS011;3848;42.016;23.098;2024-03-23T15:19:14;4.83;;;2.30;;
7613;SDS011;3848;42.016;23.098;2024-03-23T15:21:42;5.07;;;2.90;;
7613;SDS011;3848;42.016;23.098;2024-03-23T15:24:08;5.00;;;2.43;;
7613;SDS011;3848;42.016;23.098;2024-03-23T15:26:36;6.60;;;4.40;;
7613;SDS011;3848;42.016;23.098;2024-03-23T15:29:03;4.23;;;2.67;;
7613;SDS011;3848;42.016;23.098;2024-03-23T15:31:36;3.50;;;2.67;;
7613;SDS011;3848;42.016;23.098;2024-03-23T15:34:02;8.03;;;3.33;;
7613;SDS011;3848;42.016;23.098;2024-03-23T15:36:30;3.53;;;2.53;;
7613;SDS011;3848;42.016;23.098;2024-03-23T15:38:56;3.10;;;2.73;;
7613;SDS011;3848;42.016;23.098;2024-03-23T15:41:23;7.40;;;2.97;;
7613;SDS011;3848;42.016;23.098;2024-03-23T15:43:49;10.37;;;2.80;;
7613;SDS011;3848;42.016;23.098;2024-03-23T15:46:18;4.67;;;2.87;;
7613;SDS011;3848;42.016;23.098;2024-03-23T15:48:44;6.30;;;3.70;;
7613;SDS011;3848;42.016;23.098;2024-03-23T15:51:13;5.20;;;3.40;;
7613;SDS011;3848;42.016;23.098;2024-03-23T15:53:39;6.37;;;4.17;;
7613;SDS011;3848;42.016;23.098;2024-03-23T15:56:06;10.00;;;4.07;;
7613;SDS011;3848;42.016;23.098;2024-03-23T15:58:32;5.07;;;3.50;;